sensor_id;sensor_type;location;lat;lon;timestamp;temperature;humidity
45044;DHT22;30784;48.490;9.688;2023-03-23T00:01:48;15.50;36.20
45044;DHT22;30784;48.490;9.688;2023-03-23T00:04:17;15.50;36.40
45044;DHT22;30784;48.490;9.688;2023-03-23T00:06:44;15.50;36.50
45044;DHT22;30784;48.490;9.688;2023-03-23T00:09:11;15.50;36.30
45044;DHT22;30784;48.490;9.688;2023-03-23T00:11:37;15.50;36.20
45044;DHT22;30784;48.490;9.688;2023-03-23T00:14:04;15.60;36.50
45044;DHT22;30784;48.490;9.688;2023-03-23T00:16:31;15.60;36.30
45044;DHT22;30784;48.490;9.688;2023-03-23T00:19:05;15.60;36.20
45044;DHT22;30784;48.490;9.688;2023-03-23T00:21:33;15.60;36.20
45044;DHT22;30784;48.490;9.688;2023-03-23T00:24:17;15.60;36.40
45044;DHT22;30784;48.490;9.688;2023-03-23T00:26:45;15.60;36.30
45044;DHT22;30784;48.490;9.688;2023-03-23T00:29:17;15.60;36.40
45044;DHT22;30784;48.490;9.688;2023-03-23T00:31:45;15.60;36.30
45044;DHT22;30784;48.490;9.688;2023-03-23T00:34:16;15.60;36.40
45044;DHT22;30784;48.490;9.688;2023-03-23T00:36:48;15.60;36.60
45044;DHT22;30784;48.490;9.688;2023-03-23T00:39:14;15.60;36.40
45044;DHT22;30784;48.490;9.688;2023-03-23T00:41:44;15.60;36.30
45044;DHT22;30784;48.490;9.688;2023-03-23T00:44:10;15.60;36.40
45044;DHT22;30784;48.490;9.688;2023-03-23T00:46:42;15.70;36.40
45044;DHT22;30784;48.490;9.688;2023-03-23T00:49:18;15.70;36.40
45044;DHT22;30784;48.490;9.688;2023-03-23T00:51:44;15.70;36.40
45044;DHT22;30784;48.490;9.688;2023-03-23T00:54:10;15.70;36.50
45044;DHT22;30784;48.490;9.688;2023-03-23T00:56:36;15.70;36.50
45044;DHT22;30784;48.490;9.688;2023-03-23T00:59:02;15.70;36.50
45044;DHT22;30784;48.490;9.688;2023-03-23T01:01:29;15.70;36.60
45044;DHT22;30784;48.490;9.688;2023-03-23T01:03:54;15.70;36.60
45044;DHT22;30784;48.490;9.688;2023-03-23T01:06:36;15.70;36.60
45044;DHT22;30784;48.490;9.688;2023-03-23T01:09:09;15.70;36.50
45044;DHT22;30784;48.490;9.688;2023-03-23T01:11:35;15.70;36.40
45044;DHT22;30784;48.490;9.688;2023-03-23T01:14:01;15.80;36.60
45044;DHT22;30784;48.490;9.688;2023-03-23T01:16:27;15.80;36.70
45044;DHT22;30784;48.490;9.688;2023-03-23T01:18:53;15.70;36.60
45044;DHT22;30784;48.490;9.688;2023-03-23T01:21:20;15.80;36.60
45044;DHT22;30784;48.490;9.688;2023-03-23T01:23:46;15.80;36.60
45044;DHT22;30784;48.490;9.688;2023-03-23T01:26:15;15.70;36.60
45044;DHT22;30784;48.490;9.688;2023-03-23T01:28:41;15.80;36.70
45044;DHT22;30784;48.490;9.688;2023-03-23T01:31:10;15.80;36.60
45044;DHT22;30784;48.490;9.688;2023-03-23T01:33:40;15.80;36.60
45044;DHT22;30784;48.490;9.688;2023-03-23T01:36:10;15.80;36.80
45044;DHT22;30784;48.490;9.688;2023-03-23T01:38:35;15.80;37.30
45044;DHT22;30784;48.490;9.688;2023-03-23T01:41:02;15.80;36.90
45044;DHT22;30784;48.490;9.688;2023-03-23T01:43:28;15.80;36.70
45044;DHT22;30784;48.490;9.688;2023-03-23T01:45:53;15.90;36.80
45044;DHT22;30784;48.490;9.688;2023-03-23T01:48:34;15.80;36.80
45044;DHT22;30784;48.490;9.688;2023-03-23T01:51:09;15.80;36.70
45044;DHT22;30784;48.490;9.688;2023-03-23T01:53:47;15.80;36.60
45044;DHT22;30784;48.490;9.688;2023-03-23T01:56:15;15.80;36.70
45044;DHT22;30784;48.490;9.688;2023-03-23T01:58:42;15.80;36.80
45044;DHT22;30784;48.490;9.688;2023-03-23T02:01:10;15.80;36.70
45044;DHT22;30784;48.490;9.688;2023-03-23T02:03:39;15.80;36.70
45044;DHT22;30784;48.490;9.688;2023-03-23T02:06:06;15.80;36.80
45044;DHT22;30784;48.490;9.688;2023-03-23T02:08:32;15.70;36.80
45044;DHT22;30784;48.490;9.688;2023-03-23T02:10:59;15.70;36.90
45044;DHT22;30784;48.490;9.688;2023-03-23T02:13:26;15.70;37.00
45044;DHT22;30784;48.490;9.688;2023-03-23T02:18:57;15.70;37.10
45044;DHT22;30784;48.490;9.688;2023-03-23T02:21:40;15.60;36.90
45044;DHT22;30784;48.490;9.688;2023-03-23T02:24:39;15.60;37.10
45044;DHT22;30784;48.490;9.688;2023-03-23T02:27:43;15.60;37.00
45044;DHT22;30784;48.490;9.688;2023-03-23T02:36:30;15.50;37.40
45044;DHT22;30784;48.490;9.688;2023-03-23T02:39:15;15.50;37.30
45044;DHT22;30784;48.490;9.688;2023-03-23T02:41:47;15.50;37.50
45044;DHT22;30784;48.490;9.688;2023-03-23T02:44:15;15.50;37.70
45044;DHT22;30784;48.490;9.688;2023-03-23T02:46:42;15.40;37.70
45044;DHT22;30784;48.490;9.688;2023-03-23T02:49:11;15.40;37.90
45044;DHT22;30784;48.490;9.688;2023-03-23T02:51:38;15.40;37.80
45044;DHT22;30784;48.490;9.688;2023-03-23T02:54:05;15.30;38.00
45044;DHT22;30784;48.490;9.688;2023-03-23T02:56:32;15.30;38.10
45044;DHT22;30784;48.490;9.688;2023-03-23T02:58:59;15.40;38.20
45044;DHT22;30784;48.490;9.688;2023-03-23T03:04:07;15.30;38.40
45044;DHT22;30784;48.490;9.688;2023-03-23T03:09:50;15.30;38.10
45044;DHT22;30784;48.490;9.688;2023-03-23T03:17:45;15.20;38.70
45044;DHT22;30784;48.490;9.688;2023-03-23T03:20:12;15.20;38.80
45044;DHT22;30784;48.490;9.688;2023-03-23T03:22:41;15.20;38.90
45044;DHT22;30784;48.490;9.688;2023-03-23T03:25:10;15.10;39.00
45044;DHT22;30784;48.490;9.688;2023-03-23T03:27:38;15.10;39.10
45044;DHT22;30784;48.490;9.688;2023-03-23T03:30:09;15.10;38.70
45044;DHT22;30784;48.490;9.688;2023-03-23T03:32:44;15.10;39.30
45044;DHT22;30784;48.490;9.688;2023-03-23T03:35:12;15.10;39.20
45044;DHT22;30784;48.490;9.688;2023-03-23T03:37:39;15.10;39.30
45044;DHT22;30784;48.490;9.688;2023-03-23T03:40:17;15.10;39.50
45044;DHT22;30784;48.490;9.688;2023-03-23T03:42:44;15.00;39.30
45044;DHT22;30784;48.490;9.688;2023-03-23T03:45:17;15.10;39.70
45044;DHT22;30784;48.490;9.688;2023-03-23T03:47:43;15.00;39.70
45044;DHT22;30784;48.490;9.688;2023-03-23T03:50:09;15.10;39.80
45044;DHT22;30784;48.490;9.688;2023-03-23T03:52:36;15.00;40.00
45044;DHT22;30784;48.490;9.688;2023-03-23T03:55:04;15.00;40.10
45044;DHT22;30784;48.490;9.688;2023-03-23T03:57:30;15.00;40.20
45044;DHT22;30784;48.490;9.688;2023-03-23T03:59:56;15.00;40.40
45044;DHT22;30784;48.490;9.688;2023-03-23T04:02:21;15.00;40.30
45044;DHT22;30784;48.490;9.688;2023-03-23T04:04:48;14.90;40.40
45044;DHT22;30784;48.490;9.688;2023-03-23T04:07:14;15.00;40.60
45044;DHT22;30784;48.490;9.688;2023-03-23T04:09:44;15.00;40.40
45044;DHT22;30784;48.490;9.688;2023-03-23T04:12:12;15.00;40.70
45044;DHT22;30784;48.490;9.688;2023-03-23T04:14:38;15.00;40.70
45044;DHT22;30784;48.490;9.688;2023-03-23T04:17:03;15.00;40.70
45044;DHT22;30784;48.490;9.688;2023-03-23T04:19:30;15.00;40.70
45044;DHT22;30784;48.490;9.688;2023-03-23T04:21:59;15.00;40.80
45044;DHT22;30784;48.490;9.688;2023-03-23T04:24:24;15.00;40.90
45044;DHT22;30784;48.490;9.688;2023-03-23T04:26:50;15.00;40.90
45044;DHT22;30784;48.490;9.688;2023-03-23T04:29:18;15.00;40.90
45044;DHT22;30784;48.490;9.688;2023-03-23T04:31:44;15.00;41.10
45044;DHT22;30784;48.490;9.688;2023-03-23T04:34:10;15.00;41.10
45044;DHT22;30784;48.490;9.688;2023-03-23T04:36:39;15.00;41.20
45044;DHT22;30784;48.490;9.688;2023-03-23T04:39:04;15.00;41.10
45044;DHT22;30784;48.490;9.688;2023-03-23T04:41:35;15.00;41.30
45044;DHT22;30784;48.490;9.688;2023-03-23T04:44:00;15.00;40.70
45044;DHT22;30784;48.490;9.688;2023-03-23T04:46:29;15.00;41.10
45044;DHT22;30784;48.490;9.688;2023-03-23T04:48:55;15.00;41.30
45044;DHT22;30784;48.490;9.688;2023-03-23T04:51:24;15.00;41.50
45044;DHT22;30784;48.490;9.688;2023-03-23T04:53:50;15.00;41.30
45044;DHT22;30784;48.490;9.688;2023-03-23T04:56:15;15.00;41.60
45044;DHT22;30784;48.490;9.688;2023-03-23T04:58:41;15.00;41.60
45044;DHT22;30784;48.490;9.688;2023-03-23T05:01:09;14.90;41.70
45044;DHT22;30784;48.490;9.688;2023-03-23T05:03:34;15.00;41.80
45044;DHT22;30784;48.490;9.688;2023-03-23T05:06:02;14.90;41.90
45044;DHT22;30784;48.490;9.688;2023-03-23T05:08:27;14.90;42.00
45044;DHT22;30784;48.490;9.688;2023-03-23T05:10:55;14.90;42.00
45044;DHT22;30784;48.490;9.688;2023-03-23T05:13:21;14.90;42.10
45044;DHT22;30784;48.490;9.688;2023-03-23T05:15:48;14.90;42.30
45044;DHT22;30784;48.490;9.688;2023-03-23T05:18:13;14.90;42.30
45044;DHT22;30784;48.490;9.688;2023-03-23T05:20:40;14.90;42.40
45044;DHT22;30784;48.490;9.688;2023-03-23T05:23:07;14.90;42.50
45044;DHT22;30784;48.490;9.688;2023-03-23T05:25:33;14.90;42.20
45044;DHT22;30784;48.490;9.688;2023-03-23T05:28:02;14.90;42.40
45044;DHT22;30784;48.490;9.688;2023-03-23T05:30:28;14.90;42.60
45044;DHT22;30784;48.490;9.688;2023-03-23T05:32:53;14.90;42.60
45044;DHT22;30784;48.490;9.688;2023-03-23T05:35:19;14.80;42.60
45044;DHT22;30784;48.490;9.688;2023-03-23T05:37:45;14.90;42.80
45044;DHT22;30784;48.490;9.688;2023-03-23T05:40:12;14.80;42.80
45044;DHT22;30784;48.490;9.688;2023-03-23T05:42:39;14.80;42.80
45044;DHT22;30784;48.490;9.688;2023-03-23T05:45:07;14.80;42.80
45044;DHT22;30784;48.490;9.688;2023-03-23T05:47:34;14.80;42.90
45044;DHT22;30784;48.490;9.688;2023-03-23T05:50:00;14.80;43.00
45044;DHT22;30784;48.490;9.688;2023-03-23T05:52:26;14.80;43.10
45044;DHT22;30784;48.490;9.688;2023-03-23T05:54:52;14.80;43.10
45044;DHT22;30784;48.490;9.688;2023-03-23T05:57:18;14.70;43.20
45044;DHT22;30784;48.490;9.688;2023-03-23T05:59:44;14.80;43.30
45044;DHT22;30784;48.490;9.688;2023-03-23T06:02:10;14.70;43.20
45044;DHT22;30784;48.490;9.688;2023-03-23T06:04:36;14.80;43.30
45044;DHT22;30784;48.490;9.688;2023-03-23T06:07:03;14.70;43.90
45044;DHT22;30784;48.490;9.688;2023-03-23T06:09:29;14.70;43.30
45044;DHT22;30784;48.490;9.688;2023-03-23T06:11:56;14.70;43.30
45044;DHT22;30784;48.490;9.688;2023-03-23T06:14:22;14.70;43.40
45044;DHT22;30784;48.490;9.688;2023-03-23T06:16:48;14.70;43.40
45044;DHT22;30784;48.490;9.688;2023-03-23T06:19:14;14.70;43.50
45044;DHT22;30784;48.490;9.688;2023-03-23T06:21:41;14.70;43.40
45044;DHT22;30784;48.490;9.688;2023-03-23T06:24:07;14.70;43.60
45044;DHT22;30784;48.490;9.688;2023-03-23T06:26:34;14.70;43.60
45044;DHT22;30784;48.490;9.688;2023-03-23T06:29:02;14.70;43.60
45044;DHT22;30784;48.490;9.688;2023-03-23T06:31:27;14.70;43.60
45044;DHT22;30784;48.490;9.688;2023-03-23T06:33:53;14.70;43.70
45044;DHT22;30784;48.490;9.688;2023-03-23T06:36:19;14.70;43.60
45044;DHT22;30784;48.490;9.688;2023-03-23T06:38:45;14.70;43.60
45044;DHT22;30784;48.490;9.688;2023-03-23T06:41:11;14.70;43.70
45044;DHT22;30784;48.490;9.688;2023-03-23T06:43:36;14.70;43.60
45044;DHT22;30784;48.490;9.688;2023-03-23T06:46:07;14.70;43.60
45044;DHT22;30784;48.490;9.688;2023-03-23T06:48:33;14.70;43.70
45044;DHT22;30784;48.490;9.688;2023-03-23T06:50:58;14.70;43.70
45044;DHT22;30784;48.490;9.688;2023-03-23T06:53:24;14.70;43.60
45044;DHT22;30784;48.490;9.688;2023-03-23T06:55:50;14.80;43.70
45044;DHT22;30784;48.490;9.688;2023-03-23T06:58:16;14.80;43.70
45044;DHT22;30784;48.490;9.688;2023-03-23T07:00:42;14.80;43.60
45044;DHT22;30784;48.490;9.688;2023-03-23T07:03:08;14.80;43.60
45044;DHT22;30784;48.490;9.688;2023-03-23T07:05:34;14.80;43.60
45044;DHT22;30784;48.490;9.688;2023-03-23T07:08:02;14.90;43.60
45044;DHT22;30784;48.490;9.688;2023-03-23T07:10:28;14.90;43.60
45044;DHT22;30784;48.490;9.688;2023-03-23T07:12:54;14.90;43.60
45044;DHT22;30784;48.490;9.688;2023-03-23T07:15:20;14.90;43.50
45044;DHT22;30784;48.490;9.688;2023-03-23T07:17:47;15.00;43.60
45044;DHT22;30784;48.490;9.688;2023-03-23T07:20:13;15.00;43.50
45044;DHT22;30784;48.490;9.688;2023-03-23T07:22:39;15.00;43.50
45044;DHT22;30784;48.490;9.688;2023-03-23T07:25:05;15.10;43.50
45044;DHT22;30784;48.490;9.688;2023-03-23T07:27:31;15.10;43.60
45044;DHT22;30784;48.490;9.688;2023-03-23T07:29:56;15.20;43.70
45044;DHT22;30784;48.490;9.688;2023-03-23T07:32:23;15.10;43.40
45044;DHT22;30784;48.490;9.688;2023-03-23T07:34:49;15.20;43.40
45044;DHT22;30784;48.490;9.688;2023-03-23T07:37:15;15.20;43.40
45044;DHT22;30784;48.490;9.688;2023-03-23T07:39:41;15.20;43.30
45044;DHT22;30784;48.490;9.688;2023-03-23T07:42:08;15.30;43.30
45044;DHT22;30784;48.490;9.688;2023-03-23T07:44:34;15.30;43.20
45044;DHT22;30784;48.490;9.688;2023-03-23T07:46:59;15.30;43.20
45044;DHT22;30784;48.490;9.688;2023-03-23T07:49:25;15.40;43.20
45044;DHT22;30784;48.490;9.688;2023-03-23T07:51:52;15.40;43.20
45044;DHT22;30784;48.490;9.688;2023-03-23T07:54:17;15.50;43.20
45044;DHT22;30784;48.490;9.688;2023-03-23T07:56:43;15.50;43.20
45044;DHT22;30784;48.490;9.688;2023-03-23T07:59:11;15.50;43.30
45044;DHT22;30784;48.490;9.688;2023-03-23T08:01:38;15.50;43.20
45044;DHT22;30784;48.490;9.688;2023-03-23T08:04:04;15.50;43.10
45044;DHT22;30784;48.490;9.688;2023-03-23T08:06:32;15.60;43.10
45044;DHT22;30784;48.490;9.688;2023-03-23T08:08:58;15.60;43.10
45044;DHT22;30784;48.490;9.688;2023-03-23T08:11:25;15.60;43.10
45044;DHT22;30784;48.490;9.688;2023-03-23T08:13:51;15.60;43.10
45044;DHT22;30784;48.490;9.688;2023-03-23T08:16:17;15.70;43.00
45044;DHT22;30784;48.490;9.688;2023-03-23T08:18:45;15.70;43.00
45044;DHT22;30784;48.490;9.688;2023-03-23T08:21:11;15.70;43.10
45044;DHT22;30784;48.490;9.688;2023-03-23T08:23:38;15.80;43.20
45044;DHT22;30784;48.490;9.688;2023-03-23T08:26:07;15.80;43.10
45044;DHT22;30784;48.490;9.688;2023-03-23T08:28:34;15.80;43.20
45044;DHT22;30784;48.490;9.688;2023-03-23T08:31:05;15.90;43.20
45044;DHT22;30784;48.490;9.688;2023-03-23T08:33:32;15.90;43.20
45044;DHT22;30784;48.490;9.688;2023-03-23T08:35:59;16.00;43.10
45044;DHT22;30784;48.490;9.688;2023-03-23T08:38:25;16.00;43.10
45044;DHT22;30784;48.490;9.688;2023-03-23T08:40:51;16.10;43.20
45044;DHT22;30784;48.490;9.688;2023-03-23T08:43:17;16.10;43.20
45044;DHT22;30784;48.490;9.688;2023-03-23T08:45:43;16.20;43.10
45044;DHT22;30784;48.490;9.688;2023-03-23T08:48:09;16.30;43.10
45044;DHT22;30784;48.490;9.688;2023-03-23T08:50:34;16.30;42.90
45044;DHT22;30784;48.490;9.688;2023-03-23T08:53:01;16.40;43.00
45044;DHT22;30784;48.490;9.688;2023-03-23T08:55:26;16.50;42.90
45044;DHT22;30784;48.490;9.688;2023-03-23T08:57:53;16.50;42.80
45044;DHT22;30784;48.490;9.688;2023-03-23T09:00:20;16.60;42.60
45044;DHT22;30784;48.490;9.688;2023-03-23T09:02:50;16.70;42.60
45044;DHT22;30784;48.490;9.688;2023-03-23T09:05:18;16.80;42.60
45044;DHT22;30784;48.490;9.688;2023-03-23T09:07:48;16.80;42.60
45044;DHT22;30784;48.490;9.688;2023-03-23T09:10:15;16.90;42.60
45044;DHT22;30784;48.490;9.688;2023-03-23T09:12:42;17.00;42.50
45044;DHT22;30784;48.490;9.688;2023-03-23T09:15:10;17.00;42.40
45044;DHT22;30784;48.490;9.688;2023-03-23T09:17:40;17.10;42.30
45044;DHT22;30784;48.490;9.688;2023-03-23T09:20:07;17.20;42.30
45044;DHT22;30784;48.490;9.688;2023-03-23T09:22:42;17.30;42.20
45044;DHT22;30784;48.490;9.688;2023-03-23T09:25:11;17.30;41.90
45044;DHT22;30784;48.490;9.688;2023-03-23T09:27:37;17.40;41.80
45044;DHT22;30784;48.490;9.688;2023-03-23T09:30:10;17.40;41.80
45044;DHT22;30784;48.490;9.688;2023-03-23T09:32:37;17.40;41.70
45044;DHT22;30784;48.490;9.688;2023-03-23T09:35:05;17.40;41.60
45044;DHT22;30784;48.490;9.688;2023-03-23T09:37:35;17.40;41.50
45044;DHT22;30784;48.490;9.688;2023-03-23T09:40:02;17.40;41.60
45044;DHT22;30784;48.490;9.688;2023-03-23T09:45:31;17.40;41.90
45044;DHT22;30784;48.490;9.688;2023-03-23T09:51:27;17.40;41.80
45044;DHT22;30784;48.490;9.688;2023-03-23T09:54:01;17.40;41.90
45044;DHT22;30784;48.490;9.688;2023-03-23T09:56:31;17.40;41.80
45044;DHT22;30784;48.490;9.688;2023-03-23T09:59:10;17.30;41.90
45044;DHT22;30784;48.490;9.688;2023-03-23T10:01:44;17.30;42.00
45044;DHT22;30784;48.490;9.688;2023-03-23T10:04:23;17.30;42.00
45044;DHT22;30784;48.490;9.688;2023-03-23T10:06:50;17.30;42.00
45044;DHT22;30784;48.490;9.688;2023-03-23T10:09:17;17.40;41.90
45044;DHT22;30784;48.490;9.688;2023-03-23T10:11:54;17.40;42.00
45044;DHT22;30784;48.490;9.688;2023-03-23T10:19:32;17.50;41.90
45044;DHT22;30784;48.490;9.688;2023-03-23T10:22:08;17.50;42.10
45044;DHT22;30784;48.490;9.688;2023-03-23T10:24:38;17.40;42.00
45044;DHT22;30784;48.490;9.688;2023-03-23T10:27:25;17.50;42.10
45044;DHT22;30784;48.490;9.688;2023-03-23T10:30:16;17.50;42.10
45044;DHT22;30784;48.490;9.688;2023-03-23T10:32:54;17.50;42.10
45044;DHT22;30784;48.490;9.688;2023-03-23T10:35:29;17.50;42.10
45044;DHT22;30784;48.490;9.688;2023-03-23T10:38:02;17.60;42.00
45044;DHT22;30784;48.490;9.688;2023-03-23T10:40:30;17.60;41.90
45044;DHT22;30784;48.490;9.688;2023-03-23T10:42:58;17.60;41.70
45044;DHT22;30784;48.490;9.688;2023-03-23T10:45:26;17.60;41.80
45044;DHT22;30784;48.490;9.688;2023-03-23T10:47:56;17.60;41.70
45044;DHT22;30784;48.490;9.688;2023-03-23T10:50:26;17.60;41.70
45044;DHT22;30784;48.490;9.688;2023-03-23T10:52:55;17.60;41.80
45044;DHT22;30784;48.490;9.688;2023-03-23T10:55:24;17.60;41.80
45044;DHT22;30784;48.490;9.688;2023-03-23T10:58:06;17.70;41.70
45044;DHT22;30784;48.490;9.688;2023-03-23T11:00:32;17.70;41.70
45044;DHT22;30784;48.490;9.688;2023-03-23T11:05:31;17.80;41.80
45044;DHT22;30784;48.490;9.688;2023-03-23T11:07:59;17.90;41.70
45044;DHT22;30784;48.490;9.688;2023-03-23T11:10:33;17.90;41.40
45044;DHT22;30784;48.490;9.688;2023-03-23T11:12:59;17.90;41.30
45044;DHT22;30784;48.490;9.688;2023-03-23T11:15:32;18.00;41.30
45044;DHT22;30784;48.490;9.688;2023-03-23T11:18:01;18.00;41.30
45044;DHT22;30784;48.490;9.688;2023-03-23T11:20:28;18.00;41.10
45044;DHT22;30784;48.490;9.688;2023-03-23T11:22:55;17.90;41.60
45044;DHT22;30784;48.490;9.688;2023-03-23T11:25:21;17.90;41.60
45044;DHT22;30784;48.490;9.688;2023-03-23T11:27:47;17.90;41.80
45044;DHT22;30784;48.490;9.688;2023-03-23T11:30:27;17.90;42.00
45044;DHT22;30784;48.490;9.688;2023-03-23T11:32:59;17.90;41.90
45044;DHT22;30784;48.490;9.688;2023-03-23T11:35:27;17.90;42.00
45044;DHT22;30784;48.490;9.688;2023-03-23T11:37:56;17.90;42.20
45044;DHT22;30784;48.490;9.688;2023-03-23T11:40:27;17.90;42.20
45044;DHT22;30784;48.490;9.688;2023-03-23T11:43:00;17.90;42.20
45044;DHT22;30784;48.490;9.688;2023-03-23T11:45:38;17.90;42.20
45044;DHT22;30784;48.490;9.688;2023-03-23T11:48:29;17.90;42.60
45044;DHT22;30784;48.490;9.688;2023-03-23T11:51:06;17.90;42.30
45044;DHT22;30784;48.490;9.688;2023-03-23T11:56:25;17.90;42.10
45044;DHT22;30784;48.490;9.688;2023-03-23T11:58:56;17.90;42.50
45044;DHT22;30784;48.490;9.688;2023-03-23T12:04:13;18.10;42.70
45044;DHT22;30784;48.490;9.688;2023-03-23T12:06:51;18.20;41.60
45044;DHT22;30784;48.490;9.688;2023-03-23T12:09:33;18.20;41.80
45044;DHT22;30784;48.490;9.688;2023-03-23T12:17:51;18.60;41.50
45044;DHT22;30784;48.490;9.688;2023-03-23T12:26:26;19.10;40.30
45044;DHT22;30784;48.490;9.688;2023-03-23T12:28:55;19.10;39.90
45044;DHT22;30784;48.490;9.688;2023-03-23T12:44:47;19.80;39.20
45044;DHT22;30784;48.490;9.688;2023-03-23T12:47:30;19.80;39.20
45044;DHT22;30784;48.490;9.688;2023-03-23T12:52:43;19.90;39.00
45044;DHT22;30784;48.490;9.688;2023-03-23T12:55:27;19.90;39.00
45044;DHT22;30784;48.490;9.688;2023-03-23T12:57:59;19.90;38.80
45044;DHT22;30784;48.490;9.688;2023-03-23T13:03:27;19.90;38.80
45044;DHT22;30784;48.490;9.688;2023-03-23T13:09:44;19.80;38.90
45044;DHT22;30784;48.490;9.688;2023-03-23T13:11:49;19.80;38.40
45044;DHT22;30784;48.490;9.688;2023-03-23T13:22:38;19.60;38.40
45044;DHT22;30784;48.490;9.688;2023-03-23T13:25:10;19.60;38.50
45044;DHT22;30784;48.490;9.688;2023-03-23T13:27:38;19.50;38.70
45044;DHT22;30784;48.490;9.688;2023-03-23T13:30:05;19.40;38.80
45044;DHT22;30784;48.490;9.688;2023-03-23T13:32:42;19.40;38.90
45044;DHT22;30784;48.490;9.688;2023-03-23T13:35:17;19.30;38.90
45044;DHT22;30784;48.490;9.688;2023-03-23T13:37:48;19.30;39.00
45044;DHT22;30784;48.490;9.688;2023-03-23T13:40:29;19.20;39.10
45044;DHT22;30784;48.490;9.688;2023-03-23T13:42:57;19.10;39.30
45044;DHT22;30784;48.490;9.688;2023-03-23T13:45:46;19.10;39.60
45044;DHT22;30784;48.490;9.688;2023-03-23T13:50:58;19.00;40.00
45044;DHT22;30784;48.490;9.688;2023-03-23T13:53:26;18.90;39.80
45044;DHT22;30784;48.490;9.688;2023-03-23T13:56:16;18.90;40.30
45044;DHT22;30784;48.490;9.688;2023-03-23T13:58:46;18.90;40.40
45044;DHT22;30784;48.490;9.688;2023-03-23T14:01:15;18.90;40.70
45044;DHT22;30784;48.490;9.688;2023-03-23T14:03:45;18.90;41.10
45044;DHT22;30784;48.490;9.688;2023-03-23T14:06:18;18.90;41.20
45044;DHT22;30784;48.490;9.688;2023-03-23T14:08:47;18.90;41.40
45044;DHT22;30784;48.490;9.688;2023-03-23T14:11:22;18.90;41.40
45044;DHT22;30784;48.490;9.688;2023-03-23T14:14:06;18.90;41.30
45044;DHT22;30784;48.490;9.688;2023-03-23T14:16:37;18.90;41.20
45044;DHT22;30784;48.490;9.688;2023-03-23T14:19:03;18.90;41.40
45044;DHT22;30784;48.490;9.688;2023-03-23T14:21:34;18.90;40.90
45044;DHT22;30784;48.490;9.688;2023-03-23T14:24:08;18.90;41.10
45044;DHT22;30784;48.490;9.688;2023-03-23T14:26:35;18.90;40.90
45044;DHT22;30784;48.490;9.688;2023-03-23T14:29:01;18.90;41.00
45044;DHT22;30784;48.490;9.688;2023-03-23T14:31:28;18.90;41.00
45044;DHT22;30784;48.490;9.688;2023-03-23T14:33:55;18.80;41.00
45044;DHT22;30784;48.490;9.688;2023-03-23T14:36:27;18.80;41.00
45044;DHT22;30784;48.490;9.688;2023-03-23T14:41:47;18.80;40.80
45044;DHT22;30784;48.490;9.688;2023-03-23T14:44:21;18.80;40.70
45044;DHT22;30784;48.490;9.688;2023-03-23T14:46:47;18.80;40.70
45044;DHT22;30784;48.490;9.688;2023-03-23T14:49:17;18.70;40.70
45044;DHT22;30784;48.490;9.688;2023-03-23T14:51:49;18.70;40.70
45044;DHT22;30784;48.490;9.688;2023-03-23T14:54:15;18.70;40.80
45044;DHT22;30784;48.490;9.688;2023-03-23T14:56:41;18.70;40.80
45044;DHT22;30784;48.490;9.688;2023-03-23T14:59:10;18.60;40.80
45044;DHT22;30784;48.490;9.688;2023-03-23T15:01:37;18.70;40.90
45044;DHT22;30784;48.490;9.688;2023-03-23T15:04:21;18.70;40.90
45044;DHT22;30784;48.490;9.688;2023-03-23T15:06:54;18.60;40.80
45044;DHT22;30784;48.490;9.688;2023-03-23T15:09:22;18.60;40.70
45044;DHT22;30784;48.490;9.688;2023-03-23T15:14:24;18.50;40.60
45044;DHT22;30784;48.490;9.688;2023-03-23T15:16:53;18.50;40.60
45044;DHT22;30784;48.490;9.688;2023-03-23T15:21:54;18.50;40.80
45044;DHT22;30784;48.490;9.688;2023-03-23T15:24:34;18.40;40.70
45044;DHT22;30784;48.490;9.688;2023-03-23T15:29:50;18.40;40.80
45044;DHT22;30784;48.490;9.688;2023-03-23T15:32:40;18.40;40.90
45044;DHT22;30784;48.490;9.688;2023-03-23T15:35:21;18.40;40.90
45044;DHT22;30784;48.490;9.688;2023-03-23T15:38:32;18.40;40.90
45044;DHT22;30784;48.490;9.688;2023-03-23T15:40:35;18.40;40.90
45044;DHT22;30784;48.490;9.688;2023-03-23T15:43:17;18.40;40.60
45044;DHT22;30784;48.490;9.688;2023-03-23T15:48:48;18.30;40.60
45044;DHT22;30784;48.490;9.688;2023-03-23T15:51:15;18.20;40.60
45044;DHT22;30784;48.490;9.688;2023-03-23T15:53:41;18.20;40.80
45044;DHT22;30784;48.490;9.688;2023-03-23T15:56:09;18.20;40.90
45044;DHT22;30784;48.490;9.688;2023-03-23T15:58:35;18.20;41.00
45044;DHT22;30784;48.490;9.688;2023-03-23T16:01:04;18.20;41.00
45044;DHT22;30784;48.490;9.688;2023-03-23T16:03:42;18.20;40.90
45044;DHT22;30784;48.490;9.688;2023-03-23T16:06:13;18.10;40.70
45044;DHT22;30784;48.490;9.688;2023-03-23T16:08:39;18.10;40.70
45044;DHT22;30784;48.490;9.688;2023-03-23T16:11:15;18.10;40.70
45044;DHT22;30784;48.490;9.688;2023-03-23T16:13:42;18.10;40.70
45044;DHT22;30784;48.490;9.688;2023-03-23T16:16:17;18.10;40.80
45044;DHT22;30784;48.490;9.688;2023-03-23T16:18:43;18.10;40.70
45044;DHT22;30784;48.490;9.688;2023-03-23T16:21:08;18.00;40.60
45044;DHT22;30784;48.490;9.688;2023-03-23T16:23:35;18.00;40.70
45044;DHT22;30784;48.490;9.688;2023-03-23T16:26:00;18.00;40.70
45044;DHT22;30784;48.490;9.688;2023-03-23T16:28:26;18.00;40.80
45044;DHT22;30784;48.490;9.688;2023-03-23T16:30:51;17.90;40.80
45044;DHT22;30784;48.490;9.688;2023-03-23T16:33:17;18.00;40.70
45044;DHT22;30784;48.490;9.688;2023-03-23T16:35:43;17.90;40.70
45044;DHT22;30784;48.490;9.688;2023-03-23T16:38:16;17.90;41.30
45044;DHT22;30784;48.490;9.688;2023-03-23T16:40:43;17.80;40.60
45044;DHT22;30784;48.490;9.688;2023-03-23T16:43:09;17.80;40.70
45044;DHT22;30784;48.490;9.688;2023-03-23T16:45:36;17.80;40.80
45044;DHT22;30784;48.490;9.688;2023-03-23T16:48:02;17.80;40.80
45044;DHT22;30784;48.490;9.688;2023-03-23T16:50:28;17.70;40.70
45044;DHT22;30784;48.490;9.688;2023-03-23T16:52:54;17.70;40.80
45044;DHT22;30784;48.490;9.688;2023-03-23T16:55:20;17.70;40.80
45044;DHT22;30784;48.490;9.688;2023-03-23T16:57:46;17.70;40.90
45044;DHT22;30784;48.490;9.688;2023-03-23T17:00:16;17.60;40.90
45044;DHT22;30784;48.490;9.688;2023-03-23T17:02:53;17.70;41.00
45044;DHT22;30784;48.490;9.688;2023-03-23T17:05:22;17.60;41.00
45044;DHT22;30784;48.490;9.688;2023-03-23T17:07:48;17.60;41.00
45044;DHT22;30784;48.490;9.688;2023-03-23T17:10:15;17.60;41.10
45044;DHT22;30784;48.490;9.688;2023-03-23T17:12:41;17.60;41.10
45044;DHT22;30784;48.490;9.688;2023-03-23T17:15:07;17.60;41.60
45044;DHT22;30784;48.490;9.688;2023-03-23T17:17:34;17.60;41.20
45044;DHT22;30784;48.490;9.688;2023-03-23T17:19:59;17.50;41.20
45044;DHT22;30784;48.490;9.688;2023-03-23T17:22:25;17.50;41.20